createdAt,value
2023-05-09T00:00:32.974Z,121.87
2023-05-09T00:01:32.914Z,122.07
2023-05-09T00:02:33.190Z,121.18
2023-05-09T00:03:32.964Z,122.15
2023-05-09T00:04:33.047Z,121.97
2023-05-09T00:05:32.971Z,120.85
2023-05-09T00:06:33.010Z,117.85
2023-05-09T00:07:33.005Z,120.93
2023-05-09T00:08:33.046Z,121.51
2023-05-09T00:09:33.052Z,121.23
2023-05-09T00:10:33.058Z,115.81
2023-05-09T00:11:33.077Z,121.52
2023-05-09T00:12:33.096Z,120.48
2023-05-09T00:13:33.115Z,120.44
2023-05-09T00:14:33.130Z,121.96
2023-05-09T00:15:33.154Z,117.46
2023-05-09T00:16:33.370Z,120.71
2023-05-09T00:17:33.210Z,120.77
2023-05-09T00:18:33.668Z,119.82
2023-05-09T00:19:33.220Z,120.55
2023-05-09T00:20:33.257Z,117.40
2023-05-09T00:21:33.252Z,122.62
2023-05-09T00:22:33.287Z,120.78
2023-05-09T00:23:33.301Z,118.78
2023-05-09T00:24:33.318Z,119.97
2023-05-09T00:25:33.331Z,118.83
2023-05-09T00:26:33.354Z,119.37
2023-05-09T00:27:33.362Z,118.98
2023-05-09T00:28:33.390Z,121.10
2023-05-09T00:29:33.421Z,116.24
2023-05-09T00:30:33.436Z,121.84
2023-05-09T00:31:33.492Z,118.51
2023-05-09T00:32:33.603Z,120.54
2023-05-09T00:33:33.498Z,120.08
2023-05-09T00:34:33.530Z,119.75
2023-05-09T00:35:33.532Z,119.35
2023-05-09T00:36:33.586Z,119.54
2023-05-09T00:37:33.621Z,118.85
2023-05-09T00:38:33.598Z,119.13
2023-05-09T00:39:33.648Z,119.96
2023-05-09T00:40:33.660Z,118.60
2023-05-09T00:41:33.687Z,120.23
2023-05-09T00:42:33.702Z,117.99
2023-05-09T00:43:33.750Z,116.57
2023-05-09T00:44:33.748Z,119.23
2023-05-09T00:45:34.692Z,119.17
2023-05-09T00:46:33.884Z,119.46
2023-05-09T00:47:33.858Z,120.35
2023-05-09T00:48:33.932Z,118.96
2023-05-09T00:49:33.864Z,118.16
2023-05-09T00:50:33.902Z,118.82
2023-05-09T00:51:33.898Z,118.69
2023-05-09T00:52:33.942Z,117.68
2023-05-09T00:53:33.969Z,118.79
2023-05-09T00:54:33.956Z,117.77
2023-05-09T00:55:33.968Z,118.59
2023-05-09T00:56:34.018Z,118.76
2023-05-09T00:57:34.028Z,117.17
2023-05-09T00:58:34.060Z,117.64
2023-05-09T00:59:34.070Z,114.75
2023-05-09T01:00:34.088Z,118.27
2023-05-09T01:01:34.143Z,118.10
2023-05-09T01:02:34.206Z,117.81
2023-05-09T01:03:34.287Z,116.58
2023-05-09T01:04:34.267Z,117.40
2023-05-09T01:05:34.211Z,119.71
2023-05-09T01:06:34.220Z,119.22
2023-05-09T01:07:34.277Z,118.28
2023-05-09T01:08:34.283Z,118.23
2023-05-09T01:09:34.309Z,117.80
2023-05-09T01:10:34.380Z,114.74
2023-05-09T01:11:34.379Z,117.73
2023-05-09T01:12:34.413Z,117.94
2023-05-09T01:13:34.425Z,116.30
2023-05-09T01:14:34.450Z,117.68
2023-05-09T01:15:34.506Z,118.93
2023-05-09T01:16:34.513Z,117.30
2023-05-09T01:17:34.531Z,117.75
2023-05-09T01:18:34.555Z,116.57
2023-05-09T01:19:34.595Z,119.06
2023-05-09T01:20:34.697Z,115.34
2023-05-09T01:21:34.639Z,115.72
2023-05-09T01:22:34.645Z,115.53
2023-05-09T01:23:34.700Z,115.90
2023-05-09T01:24:34.742Z,117.65
2023-05-09T01:25:34.733Z,114.68
2023-05-09T01:26:34.784Z,117.09
2023-05-09T01:27:34.794Z,116.33
2023-05-09T01:28:34.845Z,114.51
2023-05-09T01:29:34.859Z,115.94
2023-05-09T01:30:34.872Z,116.43
2023-05-09T01:31:34.958Z,116.12
2023-05-09T01:32:34.959Z,116.46
2023-05-09T01:33:34.964Z,113.89
2023-05-09T01:34:34.974Z,116.11
2023-05-09T01:35:35.004Z,115.50
2023-05-09T01:36:35.153Z,115.43
2023-05-09T01:37:35.048Z,114.46
2023-05-09T01:38:35.080Z,115.61
2023-05-09T01:39:35.121Z,117.31
2023-05-09T01:40:35.150Z,116.08
2023-05-09T01:41:35.190Z,115.94
2023-05-09T01:42:35.204Z,115.17
2023-05-09T01:43:35.267Z,114.53
2023-05-09T01:44:35.238Z,114.13
2023-05-09T01:45:35.469Z,113.98
2023-05-09T01:46:35.395Z,115.94
2023-05-09T01:47:35.384Z,114.01
2023-05-09T01:48:35.350Z,114.40
2023-05-09T01:49:35.364Z,115.89
2023-05-09T01:50:35.408Z,115.75
2023-05-09T01:51:35.449Z,114.88
2023-05-09T01:52:35.568Z,111.40
2023-05-09T01:53:35.458Z,114.27
2023-05-09T01:54:35.486Z,116.05
2023-05-09T01:55:35.525Z,114.60
2023-05-09T01:56:35.586Z,115.87
2023-05-09T01:57:35.608Z,113.68
2023-05-09T01:58:35.604Z,114.52
2023-05-09T01:59:35.624Z,114.49
2023-05-09T02:00:35.663Z,115.18
2023-05-09T02:01:35.679Z,112.00
2023-05-09T02:02:35.814Z,113.65
2023-05-09T02:03:35.723Z,114.88
2023-05-09T02:04:35.747Z,113.83
2023-05-09T02:05:35.770Z,112.92
2023-05-09T02:06:35.809Z,112.67
2023-05-09T02:07:35.846Z,113.69
2023-05-09T02:08:35.935Z,113.25
2023-05-09T02:09:35.891Z,112.85
2023-05-09T02:10:35.891Z,113.52
2023-05-09T02:11:35.914Z,113.30
2023-05-09T02:12:35.949Z,111.03
2023-05-09T02:13:35.956Z,110.83
2023-05-09T02:14:35.981Z,112.12
2023-05-09T02:15:36.033Z,113.18
2023-05-09T02:16:36.087Z,113.97
2023-05-09T02:17:36.157Z,113.23
2023-05-09T02:18:36.092Z,111.40
2023-05-09T02:19:36.139Z,112.74
2023-05-09T02:20:36.162Z,109.16
2023-05-09T02:21:36.184Z,112.10
2023-05-09T02:22:36.229Z,113.23
2023-05-09T02:23:36.220Z,108.50
2023-05-09T02:24:36.331Z,111.45
2023-05-09T02:25:36.277Z,112.63
2023-05-09T02:26:36.301Z,113.41
2023-05-09T02:27:36.316Z,111.66
2023-05-09T02:28:36.357Z,113.51
2023-05-09T02:29:36.361Z,114.25
2023-05-09T02:30:36.374Z,113.17
2023-05-09T02:31:36.542Z,111.56
2023-05-09T02:32:36.463Z,112.86
2023-05-09T02:33:36.470Z,113.99
2023-05-09T02:34:36.519Z,111.56
2023-05-09T02:35:36.531Z,110.36
2023-05-09T02:36:36.550Z,113.70
2023-05-09T02:37:36.584Z,112.46
2023-05-09T02:38:36.625Z,113.15
2023-05-09T02:39:36.648Z,110.70
2023-05-09T02:40:36.773Z,111.98
2023-05-09T02:41:36.714Z,115.13
2023-05-09T02:42:36.742Z,111.69
2023-05-09T02:43:36.782Z,108.84
2023-05-09T02:44:36.786Z,114.70
2023-05-09T02:45:36.804Z,111.28
2023-05-09T02:46:36.831Z,112.00
2023-05-09T02:47:36.867Z,111.32
2023-05-09T02:48:36.877Z,110.93
2023-05-09T02:49:36.919Z,111.50
2023-05-09T02:50:36.931Z,110.68
2023-05-09T02:51:36.971Z,110.51
2023-05-09T02:52:37.039Z,113.44
2023-05-09T02:53:37.055Z,112.01
2023-05-09T02:54:37.055Z,108.87
2023-05-09T02:55:37.069Z,112.19
2023-05-09T02:56:37.186Z,113.24
2023-05-09T02:57:37.136Z,110.66
2023-05-09T02:58:37.174Z,111.44
2023-05-09T02:59:37.190Z,112.62
2023-05-09T03:00:37.228Z,111.16
2023-05-09T03:01:37.299Z,111.95
2023-05-09T03:02:37.432Z,113.28
2023-05-09T03:03:37.434Z,111.85
2023-05-09T03:04:37.336Z,111.42
2023-05-09T03:05:39.272Z,112.25
2023-05-09T03:06:37.393Z,113.53
2023-05-09T03:07:37.437Z,110.37
2023-05-09T03:08:37.487Z,109.35
2023-05-09T03:09:38.756Z,112.30
2023-05-09T03:10:37.486Z,112.30
2023-05-09T03:11:37.476Z,112.34
2023-05-09T03:12:37.567Z,110.76
2023-05-09T03:13:37.479Z,110.80
2023-05-09T03:14:37.459Z,111.18
2023-05-09T03:15:37.484Z,110.03
2023-05-09T03:16:37.448Z,108.87
2023-05-09T03:17:37.468Z,110.25
2023-05-09T03:18:37.444Z,112.32
2023-05-09T03:19:37.421Z,109.74
2023-05-09T03:20:37.412Z,108.69
2023-05-09T03:21:37.423Z,107.55
2023-05-09T03:22:37.433Z,111.12
2023-05-09T03:23:37.392Z,110.61
2023-05-09T03:24:37.388Z,109.17
2023-05-09T03:25:37.392Z,107.75
2023-05-09T03:26:37.399Z,110.76
2023-05-09T03:27:37.430Z,108.78
2023-05-09T03:28:37.457Z,110.47
2023-05-09T03:29:37.372Z,107.77
2023-05-09T03:30:37.368Z,108.64
2023-05-09T03:31:37.405Z,110.30
2023-05-09T03:32:37.413Z,108.76
2023-05-09T03:33:37.338Z,110.61
2023-05-09T03:34:37.328Z,109.34
2023-05-09T03:35:37.316Z,109.65
2023-05-09T03:36:37.307Z,111.00
2023-05-09T03:37:37.335Z,110.37
2023-05-09T03:38:37.311Z,109.02
2023-05-09T03:39:37.283Z,110.29
2023-05-09T03:40:37.317Z,109.65
2023-05-09T03:41:37.290Z,108.23
2023-05-09T03:42:37.298Z,107.15
2023-05-09T03:43:37.276Z,107.99
2023-05-09T03:44:37.348Z,107.34
2023-05-09T03:45:37.255Z,108.04
2023-05-09T03:46:37.321Z,109.25
2023-05-09T03:47:37.285Z,107.92
2023-05-09T03:48:37.266Z,108.81
2023-05-09T03:49:37.231Z,108.64
2023-05-09T03:50:37.257Z,107.46
2023-05-09T03:51:37.871Z,106.20
2023-05-09T03:52:37.226Z,109.47
2023-05-09T03:53:37.197Z,105.84
2023-05-09T03:54:37.188Z,106.91
2023-05-09T03:55:37.201Z,106.57
2023-05-09T03:56:37.187Z,107.55
2023-05-09T03:57:37.179Z,105.77
2023-05-09T03:58:37.209Z,106.85
2023-05-09T03:59:37.175Z,106.83
2023-05-09T04:00:37.169Z,108.27
2023-05-09T04:01:38.255Z,106.56
2023-05-09T04:02:37.300Z,109.08
2023-05-09T04:03:37.255Z,110.73
2023-05-09T04:04:37.145Z,107.12
2023-05-09T04:05:37.159Z,105.78
2023-05-09T04:06:37.123Z,106.47
2023-05-09T04:07:37.116Z,105.16
2023-05-09T04:08:37.120Z,107.05
2023-05-09T04:09:37.118Z,109.82
2023-05-09T04:10:37.112Z,107.43
2023-05-09T04:11:37.110Z,107.55
2023-05-09T04:12:37.102Z,108.62
2023-05-09T04:13:37.112Z,107.00
2023-05-09T04:14:37.082Z,107.13
2023-05-09T04:15:37.070Z,108.62
2023-05-09T04:16:37.160Z,107.38
2023-05-09T04:17:37.121Z,104.82
2023-05-09T04:18:37.091Z,106.08
2023-05-09T04:19:37.056Z,105.18
2023-05-09T04:20:37.033Z,105.71
2023-05-09T04:21:37.038Z,104.04
2023-05-09T04:22:37.053Z,106.86
2023-05-09T04:23:37.028Z,106.53
2023-05-09T04:24:37.013Z,106.71
2023-05-09T04:25:37.002Z,105.36
2023-05-09T04:26:36.982Z,105.01
2023-05-09T04:27:37.000Z,103.76
2023-05-09T04:28:36.981Z,107.83
2023-05-09T04:29:36.974Z,105.91
2023-05-09T04:30:37.010Z,102.92
2023-05-09T04:31:37.101Z,102.47
2023-05-09T04:32:37.138Z,105.44
2023-05-09T04:33:36.973Z,104.01
2023-05-09T04:34:36.927Z,105.65
2023-05-09T04:35:36.947Z,103.90
2023-05-09T04:36:36.933Z,104.95
2023-05-09T04:37:36.937Z,104.28
2023-05-09T04:38:36.910Z,104.99
2023-05-09T04:39:36.905Z,104.58
2023-05-09T04:40:36.917Z,103.10
2023-05-09T04:41:36.930Z,104.93
2023-05-09T04:42:36.901Z,105.10
2023-05-09T04:43:36.883Z,107.05
2023-05-09T04:44:36.896Z,108.13
2023-05-09T04:45:36.913Z,102.11
2023-05-09T04:46:36.858Z,102.56
2023-05-09T04:47:36.890Z,106.12
2023-05-09T04:48:36.950Z,106.44
2023-05-09T04:49:36.829Z,101.70
2023-05-09T04:50:36.842Z,104.62
2023-05-09T04:51:36.841Z,101.65
2023-05-09T04:52:36.848Z,105.11
2023-05-09T04:53:36.807Z,102.12
2023-05-09T04:54:36.821Z,102.60
2023-05-09T04:55:36.831Z,104.78
2023-05-09T04:56:36.870Z,104.77
2023-05-09T04:57:36.914Z,104.31
2023-05-09T04:58:36.961Z,101.47
2023-05-09T04:59:37.000Z,102.15
2023-05-09T05:00:37.026Z,105.41
2023-05-09T05:01:37.139Z,103.95
2023-05-09T05:02:37.218Z,104.11
2023-05-09T05:03:37.134Z,103.30
2023-05-09T05:04:37.293Z,101.99
2023-05-09T05:05:37.872Z,103.01
2023-05-09T05:06:37.237Z,104.50
2023-05-09T05:07:37.278Z,102.79
2023-05-09T05:08:37.309Z,104.95
2023-05-09T05:09:37.370Z,105.17
2023-05-09T05:10:37.391Z,102.43
2023-05-09T05:11:37.398Z,101.87
2023-05-09T05:12:37.477Z,100.91
2023-05-09T05:13:37.523Z,102.97
2023-05-09T05:14:37.575Z,102.88
2023-05-09T05:15:37.639Z,103.31
2023-05-09T05:16:37.683Z,102.98
2023-05-09T05:17:37.732Z,100.78
2023-05-09T05:18:37.783Z,102.59
2023-05-09T05:19:37.758Z,100.60
2023-05-09T05:20:37.865Z,100.80
2023-05-09T05:21:37.883Z,102.71
2023-05-09T05:22:37.901Z,98.97
2023-05-09T05:23:37.913Z,101.28
2023-05-09T05:24:38.255Z,101.34
2023-05-09T05:25:37.951Z,101.56
2023-05-09T05:26:37.995Z,101.77
2023-05-09T05:27:38.091Z,100.36
2023-05-09T05:28:38.053Z,99.86
2023-05-09T05:29:38.074Z,100.42
2023-05-09T05:30:38.099Z,101.09
2023-05-09T05:31:38.221Z,101.18
2023-05-09T05:32:38.247Z,99.00
2023-05-09T05:33:38.200Z,102.02
2023-05-09T05:34:38.248Z,100.30
2023-05-09T05:35:38.235Z,104.06
2023-05-09T05:36:38.383Z,105.95
2023-05-09T05:37:38.323Z,106.55
2023-05-09T05:38:38.392Z,112.36
2023-05-09T05:39:38.389Z,115.23
2023-05-09T05:40:38.426Z,119.75
2023-05-09T05:41:38.422Z,129.26
2023-05-09T05:42:38.605Z,133.05
2023-05-09T05:43:38.460Z,137.88
2023-05-09T05:44:38.509Z,156.99
2023-05-09T05:45:38.546Z,167.87
2023-05-09T05:46:38.568Z,166.35
2023-05-09T05:47:38.955Z,177.74
2023-05-09T05:48:38.514Z,180.50
2023-05-09T05:49:38.554Z,187.08
2023-05-09T05:50:38.676Z,197.70
2023-05-09T05:51:38.554Z,203.21
2023-05-09T05:52:38.594Z,213.27
2023-05-09T05:53:38.566Z,217.15
2023-05-09T05:54:38.553Z,225.53
2023-05-09T05:55:38.590Z,230.24
2023-05-09T05:56:38.584Z,227.64
2023-05-09T05:57:38.672Z,247.03
2023-05-09T05:58:38.704Z,246.03
2023-05-09T05:59:38.768Z,247.93
2023-05-09T06:00:38.800Z,248.19
2023-05-09T06:01:38.902Z,245.45
2023-05-09T06:02:39.429Z,242.47
2023-05-09T06:03:39.031Z,250.65
2023-05-09T06:04:39.050Z,244.71
2023-05-09T06:05:39.096Z,250.00
2023-05-09T06:06:39.176Z,243.27
2023-05-09T06:07:39.244Z,230.89
2023-05-09T06:08:39.386Z,213.64
2023-05-09T06:09:39.307Z,211.03
2023-05-09T06:10:39.275Z,203.26
2023-05-09T06:11:39.295Z,199.54
2023-05-09T06:12:39.347Z,201.12
2023-05-09T06:13:39.362Z,185.44
2023-05-09T06:14:39.522Z,177.35
2023-05-09T06:15:39.444Z,173.08
2023-05-09T06:16:39.502Z,166.72
2023-05-09T06:17:39.609Z,150.71
2023-05-09T06:18:39.636Z,143.93
2023-05-09T06:19:39.614Z,147.65
2023-05-09T06:20:39.589Z,146.74
2023-05-09T06:21:39.587Z,136.34
2023-05-09T06:22:39.567Z,137.78
2023-05-09T06:23:47.247Z,133.29
2023-05-09T06:24:40.644Z,133.45
2023-05-09T06:25:39.554Z,133.71
2023-05-09T06:26:39.555Z,134.18
2023-05-09T06:27:39.527Z,134.23
2023-05-09T06:28:39.529Z,133.48
2023-05-09T06:29:39.529Z,132.34
2023-05-09T06:30:39.566Z,126.94
2023-05-09T06:31:39.619Z,132.44
2023-05-09T06:32:39.648Z,130.26
2023-05-09T06:33:39.729Z,129.14
2023-05-09T06:34:39.780Z,126.30
2023-05-09T06:35:39.822Z,132.01
2023-05-09T06:36:39.922Z,133.58
2023-05-09T06:37:39.949Z,135.11
2023-05-09T06:38:40.367Z,129.36
2023-05-09T06:39:40.347Z,128.18
2023-05-09T06:40:40.341Z,127.40
2023-05-09T06:41:40.241Z,123.15
2023-05-09T06:42:40.248Z,120.63
2023-05-09T06:43:40.327Z,116.90
2023-05-09T06:44:40.411Z,119.15
2023-05-09T06:45:40.461Z,117.79
2023-05-09T06:46:40.540Z,118.38
2023-05-09T06:47:40.552Z,121.76
2023-05-09T06:48:40.587Z,116.20
2023-05-09T06:49:40.684Z,122.18
2023-05-09T06:50:40.725Z,121.29
2023-05-09T06:51:40.730Z,120.97
2023-05-09T06:52:40.792Z,123.66
2023-05-09T06:53:40.843Z,127.93
2023-05-09T06:54:40.933Z,135.55
2023-05-09T06:55:41.054Z,141.77
2023-05-09T06:56:41.040Z,145.89
2023-05-09T06:57:40.992Z,150.64
2023-05-09T06:58:40.987Z,160.33
2023-05-09T06:59:41.407Z,162.01
2023-05-09T07:00:41.043Z,173.74
2023-05-09T07:01:41.169Z,164.88
2023-05-09T07:02:41.115Z,156.93
2023-05-09T07:03:41.114Z,148.08
2023-05-09T07:04:41.217Z,140.74
2023-05-09T07:05:41.914Z,133.67
2023-05-09T07:06:41.344Z,145.62
2023-05-09T07:07:41.291Z,138.68
2023-05-09T07:08:41.346Z,143.37
2023-05-09T07:09:41.418Z,143.87
2023-05-09T07:10:41.497Z,146.81
2023-05-09T07:11:41.537Z,149.61
2023-05-09T07:12:41.776Z,147.87
2023-05-09T07:13:41.723Z,148.17
2023-05-09T07:14:41.617Z,152.48
2023-05-09T07:15:42.869Z,155.38
2023-05-09T07:16:41.703Z,155.07
2023-05-09T07:17:41.905Z,154.09
2023-05-09T07:18:41.737Z,157.23
2023-05-09T07:19:41.730Z,157.32
2023-05-09T07:20:41.785Z,161.52
2023-05-09T07:21:41.815Z,164.97
2023-05-09T07:22:41.841Z,165.26
2023-05-09T07:23:41.802Z,165.37
2023-05-09T07:24:41.825Z,157.50
2023-05-09T07:25:41.823Z,151.85
2023-05-09T07:26:41.937Z,160.37
2023-05-09T07:27:41.807Z,161.54
2023-05-09T07:28:41.899Z,166.27
2023-05-09T07:29:41.900Z,166.66
2023-05-09T07:30:41.864Z,167.75
2023-05-09T07:31:41.904Z,161.52
2023-05-09T07:32:41.866Z,161.45
2023-05-09T07:33:41.913Z,165.78
2023-05-09T07:34:41.888Z,173.56
2023-05-09T07:35:42.419Z,179.60
2023-05-09T07:36:41.855Z,177.46
2023-05-09T07:37:41.962Z,187.86
2023-05-09T07:38:41.916Z,252.09
2023-05-09T07:39:41.955Z,242.51
2023-05-09T07:40:41.886Z,240.94
2023-05-09T07:41:42.322Z,232.32
2023-05-09T07:42:41.913Z,231.03
2023-05-09T07:43:42.406Z,213.74
2023-05-09T07:44:42.058Z,215.03
2023-05-09T07:45:42.008Z,208.77
2023-05-09T07:46:41.961Z,196.44
2023-05-09T07:47:41.989Z,189.91
2023-05-09T07:48:41.988Z,188.06
2023-05-09T07:49:42.058Z,175.87
2023-05-09T07:50:42.040Z,184.46
2023-05-09T07:51:42.057Z,181.49
2023-05-09T07:52:42.071Z,182.01
2023-05-09T07:53:42.110Z,185.27
2023-05-09T07:54:42.122Z,184.94
2023-05-09T07:55:42.179Z,182.68
2023-05-09T07:56:42.194Z,179.58
2023-05-09T07:57:42.228Z,177.56
2023-05-09T07:58:42.296Z,178.25
2023-05-09T07:59:42.399Z,171.33
2023-05-09T08:00:42.459Z,180.91
2023-05-09T08:01:42.464Z,182.09
2023-05-09T08:02:42.572Z,187.83
2023-05-09T08:03:42.637Z,190.61
2023-05-09T08:04:42.704Z,194.55
2023-05-09T08:05:42.676Z,197.88
2023-05-09T08:06:42.708Z,198.56
2023-05-09T08:07:42.797Z,196.47
2023-05-09T08:08:42.892Z,198.19
2023-05-09T08:09:42.910Z,207.55
2023-05-09T08:10:42.922Z,196.35
2023-05-09T08:11:42.959Z,200.79
2023-05-09T08:12:43.052Z,194.37
2023-05-09T08:13:43.090Z,195.17
2023-05-09T08:14:43.444Z,200.97
2023-05-09T08:15:43.197Z,195.49
2023-05-09T08:16:43.312Z,192.12
2023-05-09T08:17:43.273Z,193.15
2023-05-09T08:18:43.310Z,201.80
2023-05-09T08:19:43.357Z,182.38
2023-05-09T08:20:43.401Z,181.35
2023-05-09T08:21:43.461Z,184.81
2023-05-09T08:22:43.502Z,185.22
2023-05-09T08:23:44.424Z,186.98
2023-05-09T08:24:43.574Z,188.83
2023-05-09T08:25:43.604Z,185.30
2023-05-09T08:26:43.777Z,177.16
2023-05-09T08:27:43.772Z,174.97
2023-05-09T08:28:44.411Z,173.65
2023-05-09T08:29:43.773Z,164.10
2023-05-09T08:30:43.842Z,164.69
2023-05-09T08:31:43.880Z,171.30
2023-05-09T08:32:44.040Z,176.76
2023-05-09T08:33:44.013Z,179.11
2023-05-09T08:34:44.064Z,183.87
2023-05-09T08:35:44.079Z,178.94
2023-05-09T08:36:44.215Z,179.64
2023-05-09T08:37:44.228Z,176.24
2023-05-09T08:38:44.446Z,177.89
2023-05-09T08:39:44.453Z,179.08
2023-05-09T08:40:44.396Z,175.73
2023-05-09T08:41:44.442Z,174.74
2023-05-09T08:42:44.500Z,160.12
2023-05-09T08:43:44.579Z,157.16
2023-05-09T08:44:44.939Z,168.36
2023-05-09T08:45:44.674Z,167.10
2023-05-09T08:46:44.920Z,171.28
2023-05-09T08:47:44.851Z,174.53
2023-05-09T08:48:44.899Z,177.03
2023-05-09T08:49:44.927Z,180.60
2023-05-09T08:50:44.908Z,182.25
2023-05-09T08:51:44.915Z,181.81
2023-05-09T08:52:44.980Z,191.81
2023-05-09T08:53:45.439Z,188.23
2023-05-09T08:54:44.963Z,193.48
2023-05-09T08:55:44.978Z,195.00
2023-05-09T08:56:45.069Z,194.55
2023-05-09T08:57:44.986Z,197.86
2023-05-09T08:58:45.040Z,200.81
2023-05-09T08:59:45.042Z,203.78
2023-05-09T09:00:45.072Z,203.11
2023-05-09T09:01:45.172Z,213.71
2023-05-09T09:02:45.126Z,222.28
2023-05-09T09:03:45.119Z,229.84
2023-05-09T09:04:45.320Z,231.67
2023-05-09T09:05:45.181Z,239.85
2023-05-09T09:06:45.180Z,250.00
2023-05-09T09:07:45.199Z,250.42
2023-05-09T09:08:45.175Z,249.40
2023-05-09T09:09:45.270Z,247.67
2023-05-09T09:10:45.194Z,250.00
2023-05-09T09:11:45.230Z,249.20
2023-05-09T09:12:45.261Z,249.25
2023-05-09T09:13:45.280Z,248.75
2023-05-09T09:14:45.264Z,226.54
2023-05-09T09:15:45.278Z,211.58
2023-05-09T09:16:45.380Z,221.61
2023-05-09T09:17:45.511Z,224.03
2023-05-09T09:18:45.350Z,222.96
2023-05-09T09:19:45.373Z,224.50
2023-05-09T09:20:45.439Z,204.95
2023-05-09T09:21:45.475Z,216.17
2023-05-09T09:22:45.446Z,224.92
2023-05-09T09:23:45.469Z,229.66
2023-05-09T09:24:45.490Z,225.70
2023-05-09T09:25:45.520Z,225.70
2023-05-09T09:26:45.530Z,211.13
2023-05-09T09:27:45.549Z,207.21
2023-05-09T09:28:45.564Z,192.45
2023-05-09T09:29:45.599Z,174.49
2023-05-09T09:30:45.673Z,170.13
2023-05-09T09:31:45.865Z,175.14
2023-05-09T09:32:45.775Z,140.86
2023-05-09T09:33:45.755Z,146.08
2023-05-09T09:34:45.822Z,153.84
2023-05-09T09:35:45.804Z,162.92
2023-05-09T09:36:45.877Z,170.60
2023-05-09T09:37:45.825Z,177.40
2023-05-09T09:38:45.836Z,184.47
2023-05-09T09:39:45.844Z,184.93
2023-05-09T09:40:45.902Z,180.21
2023-05-09T09:41:45.850Z,177.15
2023-05-09T09:42:45.882Z,174.39
2023-05-09T09:43:45.889Z,171.16
2023-05-09T09:44:45.915Z,166.01
2023-05-09T09:45:45.922Z,161.32
2023-05-09T09:46:45.972Z,159.88
2023-05-09T09:47:46.026Z,157.27
2023-05-09T09:48:45.943Z,160.86
2023-05-09T09:49:46.268Z,138.57
2023-05-09T09:50:46.030Z,98.52
2023-05-09T09:51:46.003Z,33.56
2023-05-09T09:52:46.145Z,34.40
2023-05-09T09:53:46.103Z,36.91
2023-05-09T09:54:46.240Z,54.81
2023-05-09T09:55:46.118Z,31.02
2023-05-09T09:56:46.148Z,32.92
2023-05-09T09:57:46.169Z,30.50
2023-05-09T09:58:46.159Z,43.81
2023-05-09T09:59:46.349Z,61.51
2023-05-09T10:00:46.272Z,66.40
2023-05-09T10:01:46.333Z,78.20
2023-05-09T10:02:46.282Z,80.55
2023-05-09T10:03:46.413Z,69.44
2023-05-09T10:04:46.314Z,82.16
2023-05-09T10:05:46.340Z,73.20
2023-05-09T10:06:46.407Z,0.00
2023-05-09T10:07:46.428Z,16.73
2023-05-09T10:08:46.574Z,23.22
2023-05-09T10:09:46.478Z,24.41
2023-05-09T10:10:46.536Z,32.33
2023-05-09T10:11:46.545Z,35.18
2023-05-09T10:12:46.672Z,32.94
2023-05-09T10:13:46.679Z,25.03
2023-05-09T10:14:46.970Z,28.94
2023-05-09T10:15:53.515Z,20.65
2023-05-09T10:16:47.869Z,21.22
2023-05-09T10:17:46.923Z,22.84
2023-05-09T10:18:46.899Z,26.26
2023-05-09T10:19:46.697Z,18.18
2023-05-09T10:20:46.676Z,4.57
2023-05-09T10:21:46.662Z,25.39
2023-05-09T10:22:46.651Z,25.00
2023-05-09T10:23:46.691Z,26.92
2023-05-09T10:24:46.831Z,23.40
2023-05-09T10:25:46.638Z,33.10
2023-05-09T10:26:46.690Z,36.17
2023-05-09T10:27:46.738Z,33.91
2023-05-09T10:28:46.805Z,19.73
2023-05-09T10:29:46.896Z,28.85
2023-05-09T10:30:46.911Z,33.18
2023-05-09T10:31:47.141Z,37.93
2023-05-09T10:32:47.060Z,25.84
2023-05-09T10:33:47.101Z,29.12
2023-05-09T10:34:47.142Z,25.00
2023-05-09T10:35:47.224Z,26.41
2023-05-09T10:36:47.290Z,29.08
2023-05-09T10:37:47.365Z,21.74
2023-05-09T10:38:47.431Z,25.00
2023-05-09T10:39:47.472Z,25.36
2023-05-09T10:40:47.615Z,33.02
2023-05-09T10:41:47.622Z,42.19
2023-05-09T10:42:47.623Z,38.92
2023-05-09T10:43:47.701Z,38.51
2023-05-09T10:44:47.793Z,40.25
2023-05-09T10:45:47.817Z,47.34
2023-05-09T10:46:47.891Z,40.82
2023-05-09T10:47:48.020Z,22.58
2023-05-09T10:48:48.055Z,27.09
2023-05-09T10:49:48.062Z,27.62
2023-05-09T10:50:48.090Z,33.25
2023-05-09T10:51:48.158Z,34.47
2023-05-09T10:52:48.224Z,37.16
2023-05-09T10:53:48.256Z,44.08
2023-05-09T10:54:48.310Z,45.33
2023-05-09T10:55:48.353Z,43.32
2023-05-09T10:56:48.505Z,60.68
2023-05-09T10:57:48.459Z,83.97
2023-05-09T10:58:48.506Z,99.77
2023-05-09T10:59:48.589Z,110.83
2023-05-09T11:00:48.555Z,119.21
2023-05-09T11:01:48.650Z,119.56
2023-05-09T11:02:48.672Z,121.65
2023-05-09T11:03:48.778Z,126.09
2023-05-09T11:04:48.717Z,126.79
2023-05-09T11:05:48.712Z,126.89
2023-05-09T11:06:48.741Z,133.46
2023-05-09T11:07:48.794Z,137.73
2023-05-09T11:08:48.808Z,136.81
2023-05-09T11:09:48.820Z,138.85
2023-05-09T11:10:48.821Z,137.51
2023-05-09T11:11:48.861Z,135.86
2023-05-09T11:12:48.994Z,143.51
2023-05-09T11:13:48.943Z,145.17
2023-05-09T11:14:48.943Z,119.86
2023-05-09T11:15:48.904Z,87.69
2023-05-09T11:16:49.015Z,68.50
2023-05-09T11:17:48.988Z,50.97
2023-05-09T11:18:49.024Z,40.07
2023-05-09T11:19:49.033Z,25.88
2023-05-09T11:20:49.106Z,12.82
2023-05-09T11:21:49.118Z,18.30
2023-05-09T11:22:49.164Z,25.51
2023-05-09T11:23:49.201Z,19.43
2023-05-09T11:24:49.274Z,26.65
2023-05-09T11:25:49.325Z,30.70
2023-05-09T11:26:49.395Z,26.38
2023-05-09T11:27:49.405Z,25.80
2023-05-09T11:28:49.554Z,29.79
2023-05-09T11:29:49.555Z,22.70
2023-05-09T11:30:49.580Z,27.12
2023-05-09T11:31:49.673Z,25.42
2023-05-09T11:32:49.739Z,25.00
2023-05-09T11:33:49.748Z,25.88
2023-05-09T11:34:49.854Z,30.46
2023-05-09T11:35:49.868Z,38.68
2023-05-09T11:36:49.912Z,43.86
2023-05-09T11:37:49.997Z,50.57
2023-05-09T11:38:50.011Z,54.72
2023-05-09T11:39:50.098Z,59.27
2023-05-09T11:40:50.109Z,64.56
2023-05-09T11:41:50.178Z,61.31
2023-05-09T11:42:50.224Z,60.49
2023-05-09T11:43:50.261Z,61.70
2023-05-09T11:44:50.393Z,61.26
2023-05-09T11:45:50.397Z,63.59
2023-05-09T11:46:50.376Z,63.92
2023-05-09T11:47:50.496Z,64.38
2023-05-09T11:48:50.516Z,64.40
2023-05-09T11:49:50.538Z,62.10
2023-05-09T11:50:50.573Z,61.86
2023-05-09T11:51:50.641Z,61.87
2023-05-09T11:52:50.689Z,62.79
2023-05-09T11:53:50.711Z,64.63
2023-05-09T11:54:50.781Z,68.72
2023-05-09T11:55:50.905Z,69.16
2023-05-09T11:56:50.861Z,65.57
2023-05-09T11:57:51.013Z,64.30
2023-05-09T11:58:50.956Z,63.81
2023-05-09T11:59:51.069Z,64.61
2023-05-09T12:00:51.130Z,59.12
2023-05-09T12:01:51.116Z,61.86
2023-05-09T12:02:51.361Z,60.51
2023-05-09T12:03:51.246Z,56.45
2023-05-09T12:04:51.223Z,58.00
2023-05-09T12:05:51.281Z,59.21
2023-05-09T12:06:51.362Z,59.49
2023-05-09T12:07:51.402Z,59.84
2023-05-09T12:08:51.428Z,60.88
2023-05-09T12:09:51.496Z,57.56
2023-05-09T12:10:51.533Z,59.24
2023-05-09T12:11:51.599Z,62.49
2023-05-09T12:12:51.687Z,60.87
2023-05-09T12:13:51.686Z,67.28
2023-05-09T12:14:52.023Z,69.74
2023-05-09T12:15:51.950Z,70.53
2023-05-09T12:16:51.926Z,66.78
2023-05-09T12:17:52.164Z,64.45
2023-05-09T12:18:51.939Z,64.87
2023-05-09T12:19:52.085Z,65.22
2023-05-09T12:20:52.086Z,64.45
2023-05-09T12:21:52.088Z,69.64
2023-05-09T12:22:52.137Z,62.28
2023-05-09T12:23:53.510Z,85.05
2023-05-09T12:24:52.260Z,95.87
2023-05-09T12:25:52.322Z,90.73
2023-05-09T12:26:52.294Z,93.57
2023-05-09T12:27:52.325Z,95.69
2023-05-09T12:28:52.384Z,100.61
2023-05-09T12:29:54.954Z,102.89
2023-05-09T12:30:52.634Z,104.23
2023-05-09T12:31:52.701Z,111.49
2023-05-09T12:32:52.775Z,117.55
2023-05-09T12:33:52.697Z,118.67